Santa Rosa Beach, Florida
Current Conditions -  °F | °C
As of 9:53 PM on Saturday 24 Jan 2015 (Local Time) from KDTS Reporting Station
Clear Clear  
Wind Chill: 47°   Ceiling: Unl
Heat Index: 49°   Visibility: 10mi
Dew Point: 35°   Wind: 6mph
Humidity: 59%   Direction: 310°NW
Pressure: 30.05"   Gusts: NA
Location:  30.4°N, 86.23°W
Report Text: KDTS 250353Z AUTO 31005KT 10SM CLR 09/02 A3005 RMK AO2 SLP175 T00940017 TSNO
Loading
Personal Weather Stations






























Interactive Weather Map New forecast layout! Learn more

10-Day Weather Forecast

Advertisements
Track Severe Weather on mobile